Time;durP1;ratioP1;P1;durP2;ratioP2;P2;SDS_P1;SDS_P2;PMS_P1;PMS_P2;Temp;Humidity;BMP_temperature;BMP_pressure;BME280_temperature;BME280_humidity;BME280_pressure;Samples;Min_cycle;Max_cycle;Signal;HPM_P1;HPM_P2
2023/12/29 00:00:06;;;;;;;183.88;173.45;;;10.40;99.90;;;;;;5035143;28;20045;-77
2023/12/29 00:02:32;;;;;;;169.23;159.10;;;10.40;99.90;;;;;;5034149;28;20029;-77
2023/12/29 00:04:58;;;;;;;182.10;171.50;;;10.40;99.90;;;;;;5035596;28;20033;-77
2023/12/29 00:07:24;;;;;;;174.45;164.18;;;10.50;99.90;;;;;;5034780;28;20026;-77
2023/12/29 00:09:50;;;;;;;175.32;164.57;;;10.50;99.90;;;;;;5034450;28;20034;-77
2023/12/29 00:12:16;;;;;;;171.07;161.27;;;10.50;99.90;;;;;;5035063;28;20045;-77
2023/12/29 00:14:43;;;;;;;181.30;170.68;;;10.50;99.90;;;;;;5035406;28;20029;-77
2023/12/29 00:17:09;;;;;;;168.35;158.18;;;10.50;99.90;;;;;;5034526;28;20042;-77
2023/12/29 00:19:35;;;;;;;166.05;156.27;;;10.40;99.90;;;;;;5035319;28;20029;-77
2023/12/29 00:22:02;;;;;;;171.00;160.73;;;10.40;99.90;;;;;;5034292;28;20531;-77
2023/12/29 00:24:31;;;;;;;152.43;143.82;;;10.40;99.90;;;;;;5035103;28;20045;-77
2023/12/29 00:26:58;;;;;;;148.82;139.65;;;10.40;99.90;;;;;;5032886;28;20064;-77
2023/12/29 00:29:25;;;;;;;151.73;141.32;;;10.40;99.90;;;;;;5033918;28;20036;-77
2023/12/29 00:31:51;;;;;;;167.57;157.25;;;10.40;99.90;;;;;;5032478;28;20029;-77
2023/12/29 00:34:17;;;;;;;145.63;136.80;;;10.40;99.90;;;;;;5034638;28;20030;-77
2023/12/29 00:36:43;;;;;;;139.18;130.20;;;10.30;99.90;;;;;;5034680;28;20060;-77
2023/12/29 00:39:09;;;;;;;126.55;119.15;;;10.40;99.90;;;;;;5033815;28;20033;-77
2023/12/29 00:41:35;;;;;;;145.32;136.43;;;10.40;99.90;;;;;;5034653;28;20049;-77
2023/12/29 00:44:01;;;;;;;124.05;115.82;;;10.40;99.90;;;;;;5049307;28;20045;-77
2023/12/29 00:46:27;;;;;;;136.73;128.02;;;10.30;99.90;;;;;;5025522;28;20041;-77
2023/12/29 00:48:53;;;;;;;122.28;114.22;;;10.30;99.90;;;;;;5034393;28;20456;-77
2023/12/29 00:51:19;;;;;;;125.35;116.97;;;10.30;99.90;;;;;;5034559;28;20041;-78
2023/12/29 00:53:45;;;;;;;127.43;119.03;;;10.40;99.90;;;;;;5033605;28;20376;-77
2023/12/29 00:56:12;;;;;;;130.30;122.00;;;10.40;99.90;;;;;;5034274;28;20049;-77
2023/12/29 00:58:38;;;;;;;135.85;127.78;;;10.40;99.90;;;;;;5033364;28;20404;-77
2023/12/29 01:01:07;;;;;;;127.82;120.07;;;10.40;99.90;;;;;;5033693;28;20037;-77
2023/12/29 01:03:34;;;;;;;134.07;125.60;;;10.40;99.90;;;;;;5032951;28;20052;-75
2023/12/29 01:06:00;;;;;;;123.95;116.53;;;10.40;99.90;;;;;;5034435;28;20028;-76
2023/12/29 01:08:28;;;;;;;144.30;135.73;;;10.40;99.90;;;;;;5034543;28;20033;-75
2023/12/29 01:10:54;;;;;;;131.02;123.45;;;10.40;99.90;;;;;;5033062;28;20036;-76
2023/12/29 01:13:20;;;;;;;90.88;84.88;;;10.40;99.90;;;;;;5033187;28;20037;-76
2023/12/29 01:15:46;;;;;;;143.73;134.20;;;10.40;99.90;;;;;;5033479;28;20348;-75
2023/12/29 01:18:12;;;;;;;140.90;132.05;;;10.40;99.90;;;;;;5034076;28;20025;-75
2023/12/29 01:20:41;;;;;;;139.88;131.18;;;10.40;99.90;;;;;;5032841;28;20100;-76
2023/12/29 01:23:07;;;;;;;151.73;142.50;;;10.40;99.90;;;;;;5034273;28;20033;-75
2023/12/29 01:25:33;;;;;;;136.57;127.60;;;10.40;99.90;;;;;;5032512;28;20373;-75
2023/12/29 01:27:59;;;;;;;103.90;96.63;;;10.40;99.90;;;;;;5034339;28;20033;-76
2023/12/29 01:30:25;;;;;;;119.32;111.80;;;10.40;99.90;;;;;;5033513;28;20399;-76
2023/12/29 01:32:51;;;;;;;108.22;100.93;;;10.40;99.90;;;;;;5033700;28;20040;-75
2023/12/29 01:35:17;;;;;;;113.85;106.78;;;10.40;99.90;;;;;;5033886;28;20033;-75
2023/12/29 01:37:44;;;;;;;121.03;113.30;;;10.40;99.90;;;;;;5033707;28;20047;-75
2023/12/29 01:40:10;;;;;;;123.85;115.32;;;10.40;99.90;;;;;;5033639;28;20049;-75
2023/12/29 01:42:36;;;;;;;102.53;95.68;;;10.40;99.90;;;;;;5033891;28;20036;-75
2023/12/29 01:45:03;;;;;;;98.15;91.15;;;10.40;99.90;;;;;;5038503;28;20498;-74
2023/12/29 01:47:29;;;;;;;86.80;80.13;;;10.40;99.90;;;;;;5033787;28;20034;-75
2023/12/29 01:49:55;;;;;;;88.15;81.90;;;10.40;99.90;;;;;;5033728;28;20407;-75
2023/12/29 01:52:21;;;;;;;88.55;81.38;;;10.40;99.90;;;;;;5033306;28;20041;-76
2023/12/29 01:54:49;;;;;;;110.18;102.82;;;10.40;99.90;;;;;;5032450;28;20468;-75
2023/12/29 01:57:15;;;;;;;91.07;85.05;;;10.40;99.90;;;;;;5032112;28;20435;-75
2023/12/29 01:59:41;;;;;;;90.90;84.47;;;10.40;99.90;;;;;;5032315;28;20040;-75
2023/12/29 02:02:07;;;;;;;92.65;86.55;;;10.40;99.90;;;;;;5032332;28;20034;-75
2023/12/29 02:04:33;;;;;;;92.70;85.85;;;10.40;99.90;;;;;;5040027;28;20491;-76
2023/12/29 02:06:59;;;;;;;110.75;102.97;;;10.40;99.90;;;;;;5038151;28;20056;-75
2023/12/29 02:09:25;;;;;;;102.45;95.57;;;10.30;99.90;;;;;;5033168;28;20412;-77
2023/12/29 02:11:51;;;;;;;127.10;119.53;;;10.40;99.90;;;;;;5033382;28;20053;-77
2023/12/29 02:14:18;;;;;;;136.57;128.45;;;10.40;99.90;;;;;;5032024;28;20029;-77
2023/12/29 02:16:51;;;;;;;123.78;115.55;;;10.30;99.90;;;;;;5032265;28;20045;-77
2023/12/29 02:19:38;;;;;;;116.15;108.95;;;10.30;99.90;;;;;;5032058;28;20037;-78
2023/12/29 02:22:05;;;;;;;109.82;102.47;;;10.30;99.90;;;;;;5032451;28;20052;-77
2023/12/29 02:24:32;;;;;;;105.55;98.72;;;10.40;99.90;;;;;;5031848;28;20033;-77
2023/12/29 02:27:19;;;;;;;108.70;101.30;;;10.40;99.90;;;;;;5031626;28;20029;-77
2023/12/29 02:29:49;;;;;;;148.80;139.55;;;10.40;99.90;;;;;;4952442;29;20043;-77
2023/12/29 02:32:17;;;;;;;168.90;159.10;;;10.40;99.90;;;;;;4932356;28;20048;-77
2023/12/29 02:34:43;;;;;;;131.48;122.95;;;10.40;99.90;;;;;;4926087;29;20044;-77
2023/12/29 02:37:09;;;;;;;143.48;134.63;;;10.40;99.90;;;;;;4936236;29;20175;-77
2023/12/29 02:39:35;;;;;;;112.85;105.50;;;10.40;99.90;;;;;;4936507;29;20043;-77
2023/12/29 02:42:01;;;;;;;119.68;111.97;;;10.40;99.90;;;;;;4933195;29;20402;-77
2023/12/29 02:44:27;;;;;;;128.82;120.30;;;10.40;99.90;;;;;;4917721;29;20054;-77
2023/12/29 02:46:54;;;;;;;134.57;126.00;;;10.40;99.90;;;;;;4921260;28;20036;-77
2023/12/29 02:49:20;;;;;;;181.98;170.70;;;10.40;99.90;;;;;;4917493;29;20028;-78
2023/12/29 02:51:47;;;;;;;178.30;167.52;;;10.50;99.90;;;;;;4945497;29;20039;-77
2023/12/29 02:54:13;;;;;;;169.07;158.40;;;10.50;99.90;;;;;;4952174;29;20534;-77
2023/12/29 02:56:40;;;;;;;156.25;146.85;;;10.50;99.90;;;;;;4951855;29;20054;-78
2023/12/29 02:59:06;;;;;;;182.30;171.40;;;10.50;99.90;;;;;;4936278;29;20362;-77
2023/12/29 03:01:32;;;;;;;178.77;167.55;;;10.50;99.90;;;;;;4951114;28;20107;-77
2023/12/29 03:03:58;;;;;;;139.50;130.57;;;10.50;99.90;;;;;;4936039;29;20062;-78
2023/12/29 03:06:24;;;;;;;214.45;201.55;;;10.60;99.90;;;;;;4973957;28;20046;-77
2023/12/29 03:08:50;;;;;;;220.68;207.32;;;10.60;99.90;;;;;;5031264;28;20029;-77
2023/12/29 03:11:17;;;;;;;206.48;193.55;;;10.70;99.90;;;;;;5031941;28;20060;-78
2023/12/29 03:13:43;;;;;;;213.43;200.38;;;10.70;99.90;;;;;;5032139;28;20056;-74
2023/12/29 03:16:09;;;;;;;244.77;230.13;;;10.70;99.90;;;;;;5031394;28;20045;-76
2023/12/29 03:18:39;;;;;;;169.27;159.10;;;10.70;99.90;;;;;;5032183;28;20038;-76
2023/12/29 03:21:06;;;;;;;132.55;123.95;;;10.70;99.90;;;;;;5031896;28;20037;-75
2023/12/29 03:23:32;;;;;;;127.35;119.22;;;10.70;99.90;;;;;;5032375;28;20092;-76
2023/12/29 03:25:58;;;;;;;140.00;130.80;;;10.70;99.90;;;;;;5031953;28;20361;-76
2023/12/29 03:28:24;;;;;;;111.70;104.55;;;10.70;99.90;;;;;;5013648;28;20407;-76
2023/12/29 03:30:50;;;;;;;126.85;118.05;;;10.70;99.90;;;;;;5031425;28;20033;-76
2023/12/29 03:33:16;;;;;;;111.22;103.45;;;10.70;99.90;;;;;;5033248;28;20379;-76
2023/12/29 03:35:42;;;;;;;112.57;105.43;;;10.70;99.90;;;;;;5036143;28;20044;-76
2023/12/29 03:38:13;;;;;;;122.45;113.78;;;10.70;99.90;;;;;;5036061;28;20560;-75
2023/12/29 03:40:39;;;;;;;122.20;114.27;;;10.70;99.90;;;;;;5034782;28;20029;-75
2023/12/29 03:43:05;;;;;;;124.05;115.93;;;10.70;99.90;;;;;;5035617;28;20287;-74
2023/12/29 03:45:31;;;;;;;131.60;123.38;;;10.60;99.90;;;;;;5041374;28;20049;-75
2023/12/29 03:47:57;;;;;;;130.98;122.55;;;10.60;99.90;;;;;;5036014;28;20033;-75
2023/12/29 03:50:23;;;;;;;131.60;123.35;;;10.70;99.90;;;;;;5035630;28;20033;-75
2023/12/29 03:52:49;;;;;;;145.88;136.75;;;10.70;99.90;;;;;;5036033;28;20614;-75
2023/12/29 03:55:15;;;;;;;130.85;121.35;;;10.70;99.90;;;;;;5035491;28;20045;-74
2023/12/29 03:57:44;;;;;;;137.45;128.82;;;10.70;99.90;;;;;;5035519;28;20510;-75
2023/12/29 04:00:14;;;;;;;158.40;148.52;;;10.70;99.90;;;;;;5034913;28;20032;-74
2023/12/29 04:02:40;;;;;;;128.18;119.78;;;10.60;99.90;;;;;;5035750;28;20021;-75
2023/12/29 04:05:08;;;;;;;139.13;130.52;;;10.60;99.90;;;;;;5035887;28;20033;-75
2023/12/29 04:07:34;;;;;;;129.18;120.72;;;10.70;99.90;;;;;;5035448;28;20472;-74
2023/12/29 04:10:00;;;;;;;136.07;127.55;;;10.70;99.90;;;;;;5035778;28;20026;-75
2023/12/29 04:12:26;;;;;;;121.03;113.43;;;10.70;99.90;;;;;;5034778;28;20439;-74
2023/12/29 04:14:52;;;;;;;112.20;104.93;;;10.70;99.90;;;;;;5035567;28;20030;-77
2023/12/29 04:17:18;;;;;;;131.38;122.95;;;10.60;99.90;;;;;;5033199;28;20411;-77
2023/12/29 04:19:44;;;;;;;208.88;196.10;;;10.60;99.90;;;;;;5035233;28;20048;-76
2023/12/29 04:22:11;;;;;;;167.13;157.00;;;10.60;99.90;;;;;;5035095;28;20048;-76
2023/12/29 04:24:40;;;;;;;167.60;156.93;;;10.50;99.90;;;;;;5033795;28;20033;-77
2023/12/29 04:27:06;;;;;;;178.95;168.57;;;10.50;99.90;;;;;;5034562;28;20034;-77
2023/12/29 04:29:32;;;;;;;221.85;207.85;;;10.50;99.90;;;;;;5033829;28;20021;-76
2023/12/29 04:31:58;;;;;;;186.43;174.93;;;10.50;99.90;;;;;;5034506;28;20037;-77
2023/12/29 04:34:24;;;;;;;204.85;192.68;;;10.50;99.90;;;;;;5034303;28;20036;-76
2023/12/29 04:36:50;;;;;;;212.38;199.40;;;10.50;99.90;;;;;;5033508;28;20041;-76
2023/12/29 04:39:16;;;;;;;190.32;179.00;;;10.50;99.90;;;;;;5033759;28;20044;-76
2023/12/29 04:41:42;;;;;;;184.65;173.43;;;10.50;99.90;;;;;;5034259;28;20034;-76
2023/12/29 04:44:08;;;;;;;211.50;198.68;;;10.50;99.90;;;;;;5033368;28;20049;-76
2023/12/29 04:46:34;;;;;;;207.07;193.98;;;10.50;99.90;;;;;;5033602;28;20034;-77
2023/12/29 04:49:01;;;;;;;181.00;170.05;;;10.50;99.90;;;;;;5031657;28;20381;-77
2023/12/29 04:51:27;;;;;;;173.30;163.07;;;10.60;99.90;;;;;;5035618;28;20036;-76
2023/12/29 04:53:53;;;;;;;162.82;152.82;;;10.50;99.90;;;;;;5032562;28;20395;-76
2023/12/29 04:56:22;;;;;;;213.82;201.13;;;10.60;99.90;;;;;;5041179;28;20045;-77
2023/12/29 04:58:50;;;;;;;224.80;211.50;;;10.50;99.90;;;;;;5038145;28;20048;-76
2023/12/29 05:01:16;;;;;;;197.82;185.27;;;10.50;99.90;;;;;;5037118;28;20483;-76
2023/12/29 05:03:43;;;;;;;220.35;207.30;;;10.40;99.90;;;;;;5043108;28;20040;-77
2023/12/29 05:06:09;;;;;;;180.43;169.23;;;10.40;99.90;;;;;;5036580;28;20657;-76
2023/12/29 05:08:35;;;;;;;165.80;155.63;;;10.40;99.90;;;;;;5054411;28;20025;-76
2023/12/29 05:11:01;;;;;;;113.15;105.68;;;10.30;99.90;;;;;;5046364;28;20396;-76
2023/12/29 05:13:27;;;;;;;126.90;118.63;;;10.40;99.90;;;;;;5034197;28;20042;-76
2023/12/29 05:15:53;;;;;;;97.32;91.07;;;10.30;99.90;;;;;;5040159;28;20487;-77
2023/12/29 05:18:19;;;;;;;92.43;86.15;;;10.30;99.90;;;;;;5034060;28;20041;-74
2023/12/29 05:20:45;;;;;;;113.30;106.22;;;10.30;99.90;;;;;;5036420;28;20361;-74
2023/12/29 05:23:11;;;;;;;145.20;132.25;;;10.30;99.90;;;;;;5034167;28;20036;-75
2023/12/29 05:25:37;;;;;;;216.00;202.82;;;10.30;99.90;;;;;;5032301;28;20468;-74
2023/12/29 05:28:04;;;;;;;205.75;191.95;;;10.30;99.90;;;;;;5034234;28;20034;-74
2023/12/29 05:30:31;;;;;;;226.35;211.90;;;10.40;99.90;;;;;;5033361;28;20041;-74
2023/12/29 05:32:57;;;;;;;187.80;176.20;;;10.40;99.90;;;;;;5046676;28;20024;-74
2023/12/29 05:35:23;;;;;;;164.73;153.93;;;10.40;99.90;;;;;;5037460;28;20029;-74
2023/12/29 05:37:50;;;;;;;178.77;167.52;;;10.50;99.90;;;;;;5032887;28;20057;-74
2023/12/29 05:40:16;;;;;;;156.32;146.18;;;10.50;99.90;;;;;;5033110;28;20041;-74
2023/12/29 05:42:42;;;;;;;155.13;145.15;;;10.50;99.90;;;;;;5033727;28;20413;-72
2023/12/29 05:45:09;;;;;;;129.98;121.40;;;10.40;99.90;;;;;;5033044;28;20050;-73
2023/12/29 05:47:35;;;;;;;130.60;122.18;;;10.50;99.90;;;;;;5033294;28;20041;-74
2023/12/29 05:50:01;;;;;;;145.07;135.85;;;10.50;99.90;;;;;;5033880;28;20384;-74
2023/12/29 05:52:28;;;;;;;155.90;146.43;;;10.50;99.90;;;;;;5033287;28;20037;-74
2023/12/29 05:54:54;;;;;;;162.10;152.15;;;10.50;99.90;;;;;;5033158;28;20388;-74
2023/12/29 05:57:20;;;;;;;174.77;163.40;;;10.50;99.90;;;;;;5032665;28;20053;-74
2023/12/29 05:59:46;;;;;;;191.27;179.30;;;10.50;99.90;;;;;;5033385;28;20034;-74
2023/12/29 06:02:13;;;;;;;186.48;175.23;;;10.50;99.90;;;;;;5032556;28;20041;-74
2023/12/29 06:04:39;;;;;;;161.50;151.43;;;10.50;99.90;;;;;;5033622;28;20036;-75
2023/12/29 06:07:05;;;;;;;162.82;152.65;;;10.40;99.90;;;;;;5045547;28;20044;-75
2023/12/29 06:09:31;;;;;;;175.20;164.07;;;10.40;99.90;;;;;;5052837;28;20045;-74
2023/12/29 06:11:57;;;;;;;172.95;162.57;;;10.50;99.90;;;;;;5037935;28;20061;-74
2023/12/29 06:14:23;;;;;;;155.95;146.40;;;10.40;99.90;;;;;;5032162;28;20037;-74
2023/12/29 06:16:49;;;;;;;153.57;143.68;;;10.40;99.90;;;;;;5032529;28;20060;-74
2023/12/29 06:19:15;;;;;;;166.43;155.98;;;10.40;99.90;;;;;;5033011;28;20053;-74
2023/12/29 06:21:44;;;;;;;152.80;142.75;;;10.40;99.90;;;;;;5032941;28;20044;-74
2023/12/29 06:24:15;;;;;;;135.63;126.82;;;10.40;99.90;;;;;;5032687;28;20036;-74
2023/12/29 06:26:43;;;;;;;142.15;133.20;;;10.40;99.90;;;;;;5035730;28;20047;-77
2023/12/29 06:29:12;;;;;;;135.10;126.85;;;10.40;99.90;;;;;;5036838;28;20510;-77
2023/12/29 06:31:42;;;;;;;138.27;129.77;;;10.40;99.90;;;;;;5030760;28;20048;-77
2023/12/29 06:34:08;;;;;;;137.25;128.23;;;10.40;99.90;;;;;;5031731;28;20040;-76
2023/12/29 06:36:34;;;;;;;208.52;196.15;;;10.40;99.90;;;;;;5032191;28;20036;-77
2023/12/29 06:39:00;;;;;;;174.05;162.63;;;10.40;99.90;;;;;;5048290;28;20040;-77
2023/12/29 06:41:26;;;;;;;170.25;159.95;;;10.40;99.90;;;;;;5041197;28;20384;-76
2023/12/29 06:43:52;;;;;;;143.90;135.32;;;10.40;99.90;;;;;;5031193;28;20033;-77
2023/12/29 06:46:19;;;;;;;154.27;144.50;;;10.40;99.90;;;;;;5040596;28;20092;-78
2023/12/29 06:48:45;;;;;;;167.40;156.98;;;10.40;99.90;;;;;;5036176;28;20028;-76
2023/12/29 06:51:16;;;;;;;156.18;147.15;;;10.30;99.90;;;;;;5036237;28;20086;-78
2023/12/29 06:53:42;;;;;;;146.40;137.35;;;10.30;99.90;;;;;;5014934;28;20096;-77
2023/12/29 06:56:13;;;;;;;190.10;178.55;;;10.30;99.90;;;;;;5042224;28;20029;-77
2023/12/29 06:58:39;;;;;;;195.35;184.13;;;10.30;99.90;;;;;;5032384;28;20041;-78
2023/12/29 07:01:06;;;;;;;171.98;161.48;;;10.30;99.90;;;;;;5031565;28;20041;-77
2023/12/29 07:03:32;;;;;;;181.57;170.98;;;10.30;99.90;;;;;;5031544;28;20060;-77
2023/12/29 07:06:01;;;;;;;242.27;228.02;;;10.30;99.90;;;;;;5045555;28;20024;-77
2023/12/29 07:08:27;;;;;;;187.48;176.77;;;10.30;99.90;;;;;;5050345;28;20052;-77
2023/12/29 07:10:53;;;;;;;176.32;166.20;;;10.40;99.90;;;;;;5043923;28;20392;-77
2023/12/29 07:13:19;;;;;;;121.75;113.85;;;10.40;99.90;;;;;;5014839;28;20025;-77
2023/12/29 07:15:47;;;;;;;142.07;133.35;;;10.40;99.90;;;;;;5031455;28;20029;-77
2023/12/29 07:18:16;;;;;;;133.35;125.30;;;10.30;99.90;;;;;;5030749;28;20060;-77
2023/12/29 07:20:43;;;;;;;122.30;114.97;;;10.30;99.90;;;;;;5030996;28;20037;-76
2023/12/29 07:23:09;;;;;;;113.43;106.40;;;10.40;99.90;;;;;;5032371;28;20025;-77
2023/12/29 07:25:35;;;;;;;119.70;112.45;;;10.30;99.90;;;;;;5030994;28;20037;-77
2023/12/29 07:28:01;;;;;;;99.60;93.57;;;10.40;99.90;;;;;;5032171;28;20029;-77
2023/12/29 07:30:27;;;;;;;123.95;116.50;;;10.40;99.90;;;;;;5031258;28;20034;-77
2023/12/29 07:32:53;;;;;;;118.50;111.60;;;10.40;99.90;;;;;;5031879;28;20021;-78
2023/12/29 07:35:19;;;;;;;117.85;110.25;;;10.40;99.90;;;;;;5032492;28;20503;-74
2023/12/29 07:37:46;;;;;;;136.75;128.48;;;10.30;99.90;;;;;;5031900;28;20046;-74
2023/12/29 07:40:12;;;;;;;117.38;110.18;;;10.40;99.90;;;;;;5032154;28;20029;-74
2023/12/29 07:42:43;;;;;;;124.35;116.30;;;10.40;99.90;;;;;;5032005;28;20034;-74
2023/12/29 07:45:09;;;;;;;108.80;101.88;;;10.40;99.90;;;;;;5031361;28;20045;-74
2023/12/29 07:47:35;;;;;;;163.82;154.23;;;10.40;99.90;;;;;;5031927;28;20044;-74
2023/12/29 07:50:01;;;;;;;201.02;188.85;;;10.30;99.90;;;;;;5031861;28;20029;-74
2023/12/29 07:52:27;;;;;;;181.60;170.85;;;10.30;99.90;;;;;;5031798;28;20029;-74
2023/12/29 07:54:53;;;;;;;198.30;187.32;;;10.30;99.90;;;;;;5031825;28;20349;-74
2023/12/29 07:57:19;;;;;;;148.50;139.75;;;10.30;99.90;;;;;;5031876;28;20033;-74
2023/12/29 07:59:45;;;;;;;180.38;169.95;;;10.30;99.90;;;;;;5031763;28;20037;-74
2023/12/29 08:02:12;;;;;;;178.05;167.05;;;10.30;99.90;;;;;;5031253;28;20480;-74
2023/12/29 08:04:38;;;;;;;184.15;173.93;;;10.30;99.90;;;;;;5031737;28;20113;-74
2023/12/29 08:07:04;;;;;;;178.18;167.63;;;10.30;99.90;;;;;;5044271;28;20052;-74
2023/12/29 08:09:30;;;;;;;194.75;183.50;;;10.30;99.90;;;;;;5051762;28;20029;-74
2023/12/29 08:11:56;;;;;;;169.30;159.32;;;10.30;99.90;;;;;;5045135;28;20435;-73
2023/12/29 08:14:22;;;;;;;200.30;188.85;;;10.40;99.90;;;;;;5030846;28;20034;-73
2023/12/29 08:16:49;;;;;;;172.52;162.23;;;10.40;99.90;;;;;;5031098;28;20427;-73
2023/12/29 08:19:16;;;;;;;170.48;159.48;;;10.40;99.90;;;;;;5013969;28;20041;-72
2023/12/29 08:21:42;;;;;;;191.63;180.07;;;10.40;99.90;;;;;;5037696;28;20483;-72
2023/12/29 08:24:08;;;;;;;183.57;172.73;;;10.50;99.90;;;;;;5039924;28;20040;-71
2023/12/29 08:26:34;;;;;;;173.93;163.52;;;10.40;99.90;;;;;;5043315;28;20399;-73
2023/12/29 08:29:00;;;;;;;170.63;160.15;;;10.40;99.90;;;;;;5043532;28;20033;-73
2023/12/29 08:31:28;;;;;;;166.82;156.70;;;10.40;99.90;;;;;;5054538;28;20041;-71
2023/12/29 08:33:54;;;;;;;172.50;162.50;;;10.40;99.90;;;;;;5044495;28;20088;-71
2023/12/29 08:36:21;;;;;;;193.15;181.70;;;10.50;99.90;;;;;;5042159;28;20053;-72
2023/12/29 08:38:47;;;;;;;214.88;202.25;;;10.50;99.90;;;;;;5018567;28;20480;-73
2023/12/29 08:41:16;;;;;;;189.02;177.57;;;10.50;99.90;;;;;;5032903;28;20041;-73
2023/12/29 08:43:42;;;;;;;196.90;185.45;;;10.50;99.90;;;;;;5035906;28;20041;-73
2023/12/29 08:46:08;;;;;;;199.10;187.48;;;10.50;99.90;;;;;;5033887;28;20052;-73
2023/12/29 08:48:34;;;;;;;199.20;187.38;;;10.60;99.90;;;;;;5045290;28;20040;-73
2023/12/29 08:51:01;;;;;;;215.95;203.20;;;10.60;99.90;;;;;;5033763;28;20025;-73
2023/12/29 08:53:27;;;;;;;182.43;171.60;;;10.60;99.90;;;;;;5035099;28;20028;-73
2023/12/29 08:55:53;;;;;;;185.30;174.32;;;10.60;99.90;;;;;;5037018;28;20037;-73
2023/12/29 08:58:19;;;;;;;165.85;155.20;;;10.60;99.90;;;;;;5034293;28;20475;-74
2023/12/29 09:00:45;;;;;;;152.88;143.95;;;10.70;99.90;;;;;;5033487;28;20026;-68
2023/12/29 09:03:11;;;;;;;162.98;153.30;;;10.80;99.90;;;;;;5033978;28;20034;-73
2023/12/29 09:05:38;;;;;;;201.32;189.48;;;10.80;99.90;;;;;;5033710;28;20029;-74
2023/12/29 09:08:04;;;;;;;230.95;216.25;;;10.80;99.90;;;;;;5054007;28;20055;-73
2023/12/29 09:10:31;;;;;;;189.80;177.65;;;10.80;99.90;;;;;;5051099;28;20025;-73
2023/12/29 09:12:57;;;;;;;213.00;199.93;;;10.90;99.90;;;;;;5015623;28;20041;-73
2023/12/29 09:15:23;;;;;;;240.68;225.52;;;10.80;99.90;;;;;;5038004;28;20041;-73
2023/12/29 09:17:49;;;;;;;236.55;222.38;;;10.80;99.90;;;;;;5016207;28;20032;-73
2023/12/29 09:20:16;;;;;;;212.05;198.55;;;10.90;99.90;;;;;;5033882;28;20030;-73
2023/12/29 09:22:42;;;;;;;234.52;220.93;;;10.90;99.90;;;;;;5033289;28;20395;-73
2023/12/29 09:25:08;;;;;;;221.65;208.18;;;10.90;99.90;;;;;;5033081;28;20048;-74
2023/12/29 09:27:34;;;;;;;226.23;212.15;;;10.90;99.90;;;;;;5033978;28;20029;-73
2023/12/29 09:30:00;;;;;;;266.30;250.23;;;11.00;99.90;;;;;;5034068;28;20048;-73
2023/12/29 09:32:26;;;;;;;228.43;214.55;;;11.00;99.90;;;;;;5031710;28;20045;-73
2023/12/29 09:34:52;;;;;;;224.70;210.82;;;11.10;99.90;;;;;;5033684;28;20415;-74
2023/12/29 09:37:19;;;;;;;244.30;229.55;;;11.10;99.90;;;;;;5045623;28;20033;-73
2023/12/29 09:39:45;;;;;;;202.15;189.43;;;11.20;99.90;;;;;;5053371;28;20060;-73
2023/12/29 09:42:13;;;;;;;160.85;151.23;;;11.20;99.90;;;;;;5035165;28;20038;-74
2023/12/29 09:44:39;;;;;;;184.80;174.15;;;11.30;99.90;;;;;;5015739;28;20495;-73
2023/12/29 09:47:05;;;;;;;191.82;180.80;;;11.30;99.90;;;;;;5030315;28;20056;-74
2023/12/29 09:49:41;;;;;;;235.90;222.77;;;11.30;99.90;;;;;;5052480;28;20505;-73
2023/12/29 09:52:07;;;;;;;248.45;234.00;;;11.40;99.90;;;;;;5035519;28;20033;-72
2023/12/29 09:54:33;;;;;;;217.65;204.85;;;11.40;99.90;;;;;;5053566;28;20391;-74
2023/12/29 09:56:59;;;;;;;195.45;183.63;;;11.50;99.90;;;;;;5037058;28;20033;-73
2023/12/29 09:59:26;;;;;;;155.98;146.52;;;11.50;99.90;;;;;;5031803;28;20045;-72
2023/12/29 10:01:52;;;;;;;151.95;142.90;;;11.50;99.90;;;;;;5028235;28;20049;-73
2023/12/29 10:04:18;;;;;;;159.68;150.25;;;11.60;99.90;;;;;;5034549;28;20051;-74
2023/12/29 10:06:46;;;;;;;151.32;142.13;;;11.60;99.90;;;;;;5041590;28;20030;-73
2023/12/29 10:09:12;;;;;;;1999.90;999.90;;;11.70;99.90;;;;;;5032137;28;20049;-73
2023/12/29 10:11:38;;;;;;;1999.90;999.90;;;11.70;99.90;;;;;;5015125;28;20049;-73
2023/12/29 10:14:15;;;;;;;1088.20;581.83;;;11.80;99.90;;;;;;5032018;28;20025;-73
2023/12/29 10:16:47;;;;;;;1999.90;999.90;;;11.80;99.90;;;;;;5030694;28;20037;-73
2023/12/29 10:19:45;;;;;;;1999.90;999.90;;;11.90;99.90;;;;;;5015309;28;20033;-73
2023/12/29 10:22:30;;;;;;;1999.90;999.90;;;12.10;99.90;;;;;;5031148;28;20585;-72
2023/12/29 10:24:57;;;;;;;1999.90;999.90;;;12.20;99.90;;;;;;5031227;28;20495;-72
2023/12/29 10:27:23;;;;;;;1999.90;999.90;;;12.40;99.90;;;;;;5032691;28;20033;-73
2023/12/29 10:29:49;;;;;;;1999.90;999.90;;;12.50;99.90;;;;;;5031470;28;20450;-73
2023/12/29 10:32:15;;;;;;;1999.90;999.90;;;12.60;99.90;;;;;;5032056;28;20044;-73
2023/12/29 10:34:41;;;;;;;1999.90;999.90;;;12.50;99.90;;;;;;5032998;28;20029;-73
2023/12/29 10:37:09;;;;;;;1999.90;999.90;;;12.60;99.90;;;;;;5032650;28;20032;-72
2023/12/29 10:39:36;;;;;;;1999.90;999.90;;;12.60;99.90;;;;;;5032515;28;20381;-72
2023/12/29 10:42:06;;;;;;;1999.90;999.90;;;12.60;99.90;;;;;;5032383;28;20025;-73
2023/12/29 10:44:35;;;;;;;1999.90;999.90;;;12.60;99.90;;;;;;5031986;28;20049;-72
2023/12/29 10:47:11;;;;;;;1999.90;999.90;;;12.50;99.90;;;;;;5030824;28;20033;-73
2023/12/29 10:49:38;;;;;;;1999.90;999.90;;;12.50;99.90;;;;;;5032584;28;20037;-73
2023/12/29 10:52:14;;;;;;;1999.90;999.90;;;12.50;99.90;;;;;;5031154;28;20041;-74
2023/12/29 10:54:41;;;;;;;1999.90;999.90;;;12.60;99.90;;;;;;5031445;28;20028;-73
2023/12/29 10:57:09;;;;;;;1999.90;999.90;;;12.70;99.90;;;;;;5035256;28;20032;-74
2023/12/29 10:59:35;;;;;;;1999.90;999.90;;;12.70;99.90;;;;;;5026110;28;20390;-74
2023/12/29 11:02:04;;;;;;;1999.90;999.90;;;12.80;99.90;;;;;;5032629;28;20044;-74
2023/12/29 11:04:30;;;;;;;1999.90;999.90;;;12.80;99.90;;;;;;5033746;28;20037;-74
2023/12/29 11:06:57;;;;;;;1999.90;999.90;;;12.80;99.90;;;;;;5015089;28;20022;-74
2023/12/29 11:09:30;;;;;;;1999.90;999.90;;;12.90;99.90;;;;;;5035269;28;20029;-74
2023/12/29 11:12:05;;;;;;;1999.90;999.90;;;12.90;99.90;;;;;;5037675;28;20026;-75
2023/12/29 11:14:32;;;;;;;1999.90;999.90;;;12.90;99.90;;;;;;5031780;28;20041;-74
2023/12/29 11:17:00;;;;;;;1999.90;999.90;;;13.00;99.90;;;;;;5017413;28;20028;-74
2023/12/29 11:19:26;;;;;;;1999.90;999.90;;;13.00;99.90;;;;;;5030969;28;20499;-74
2023/12/29 11:21:54;;;;;;;1999.90;999.90;;;13.00;99.90;;;;;;5041246;28;20029;-74
2023/12/29 11:24:20;;;;;;;1999.90;999.90;;;13.00;99.90;;;;;;5050390;28;20483;-74
2023/12/29 11:26:47;;;;;;;1999.90;999.90;;;13.10;99.90;;;;;;5037239;28;20068;-74
2023/12/29 11:29:13;;;;;;;1999.90;999.90;;;13.10;99.90;;;;;;5014677;28;20037;-74
2023/12/29 11:31:40;;;;;;;1999.90;999.90;;;13.10;99.90;;;;;;5019460;28;20459;-74
2023/12/29 11:34:28;;;;;;;1999.90;999.90;;;13.10;99.90;;;;;;5030844;28;20037;-74
2023/12/29 11:36:58;;;;;;;1999.90;999.90;;;13.20;99.90;;;;;;5023853;28;20037;-74
2023/12/29 11:39:30;;;;;;;1999.90;999.90;;;13.20;99.90;;;;;;5031034;28;20033;-74
2023/12/29 11:42:13;;;;;;;1999.90;999.90;;;13.20;99.90;;;;;;5029608;28;20029;-74
2023/12/29 11:44:39;;;;;;;1999.90;999.90;;;13.20;99.90;;;;;;5038812;28;20499;-74
2023/12/29 11:47:06;;;;;;;1999.90;999.90;;;13.30;99.90;;;;;;5040222;28;20033;-74
2023/12/29 11:50:01;;;;;;;1999.90;999.90;;;13.30;99.90;;;;;;5050061;28;20052;-74
2023/12/29 11:52:35;;;;;;;1999.90;999.90;;;13.40;99.90;;;;;;5044779;28;20028;-74
2023/12/29 11:55:14;;;;;;;1999.90;999.90;;;13.40;99.90;;;;;;5035457;28;20025;-74
2023/12/29 11:57:41;;;;;;;1999.90;999.90;;;13.50;99.90;;;;;;5034550;28;20025;-74
2023/12/29 12:00:08;;;;;;;1999.90;999.90;;;13.50;99.90;;;;;;5034153;28;20045;-74
2023/12/29 12:02:34;;;;;;;1999.90;999.90;;;13.50;99.90;;;;;;5033350;28;20029;-74
2023/12/29 12:05:00;;;;;;;1999.90;999.90;;;13.50;99.90;;;;;;5033649;28;20053;-72
2023/12/29 12:07:27;;;;;;;1999.90;999.90;;;13.60;99.90;;;;;;5032911;28;20041;-72